sensor_id;sensor_type;location;lat;lon;timestamp;P1;durP1;ratioP1;P2;durP2;ratioP2
17864;SDS011;9058;52.018;4.202;2023-02-22T00:00:11;139.43;;;50.42;;
17864;SDS011;9058;52.018;4.202;2023-02-22T00:02:48;131.23;;;49.00;;
17864;SDS011;9058;52.018;4.202;2023-02-22T00:05:15;144.82;;;52.33;;
17864;SDS011;9058;52.018;4.202;2023-02-22T00:07:44;149.98;;;55.05;;
17864;SDS011;9058;52.018;4.202;2023-02-22T00:10:11;155.88;;;56.63;;
17864;SDS011;9058;52.018;4.202;2023-02-22T00:12:39;148.80;;;51.03;;
17864;SDS011;9058;52.018;4.202;2023-02-22T00:15:05;156.57;;;54.58;;
17864;SDS011;9058;52.018;4.202;2023-02-22T00:17:32;173.63;;;59.95;;
17864;SDS011;9058;52.018;4.202;2023-02-22T00:20:00;171.05;;;58.17;;
17864;SDS011;9058;52.018;4.202;2023-02-22T00:22:28;158.45;;;55.67;;
17864;SDS011;9058;52.018;4.202;2023-02-22T00:24:55;161.10;;;57.75;;
17864;SDS011;9058;52.018;4.202;2023-02-22T00:27:22;161.77;;;58.80;;
17864;SDS011;9058;52.018;4.202;2023-02-22T00:29:48;171.35;;;58.22;;
17864;SDS011;9058;52.018;4.202;2023-02-22T00:32:15;175.57;;;61.70;;
17864;SDS011;9058;52.018;4.202;2023-02-22T00:34:41;168.98;;;59.42;;
17864;SDS011;9058;52.018;4.202;2023-02-22T00:37:10;163.48;;;56.85;;
17864;SDS011;9058;52.018;4.202;2023-02-22T00:39:36;156.05;;;61.45;;
17864;SDS011;9058;52.018;4.202;2023-02-22T00:42:03;144.95;;;54.88;;
17864;SDS011;9058;52.018;4.202;2023-02-22T00:44:30;145.93;;;57.40;;
17864;SDS011;9058;52.018;4.202;2023-02-22T00:46:57;137.20;;;51.47;;
17864;SDS011;9058;52.018;4.202;2023-02-22T00:49:23;149.60;;;56.15;;
17864;SDS011;9058;52.018;4.202;2023-02-22T00:51:50;144.85;;;51.95;;
17864;SDS011;9058;52.018;4.202;2023-02-22T00:54:17;144.70;;;55.22;;
17864;SDS011;9058;52.018;4.202;2023-02-22T00:56:44;134.35;;;48.15;;
17864;SDS011;9058;52.018;4.202;2023-02-22T00:59:11;134.07;;;53.65;;
17864;SDS011;9058;52.018;4.202;2023-02-22T01:01:37;130.95;;;49.72;;
17864;SDS011;9058;52.018;4.202;2023-02-22T01:04:04;127.97;;;48.33;;
17864;SDS011;9058;52.018;4.202;2023-02-22T01:06:32;129.98;;;49.00;;
17864;SDS011;9058;52.018;4.202;2023-02-22T01:08:59;117.68;;;46.45;;
17864;SDS011;9058;52.018;4.202;2023-02-22T01:11:27;121.82;;;47.38;;
17864;SDS011;9058;52.018;4.202;2023-02-22T01:13:54;121.00;;;46.03;;
17864;SDS011;9058;52.018;4.202;2023-02-22T01:16:24;117.00;;;45.47;;
17864;SDS011;9058;52.018;4.202;2023-02-22T01:18:50;114.35;;;44.97;;
17864;SDS011;9058;52.018;4.202;2023-02-22T01:21:17;108.18;;;44.28;;
17864;SDS011;9058;52.018;4.202;2023-02-22T01:23:44;102.47;;;41.50;;
17864;SDS011;9058;52.018;4.202;2023-02-22T01:26:11;96.20;;;40.47;;
17864;SDS011;9058;52.018;4.202;2023-02-22T01:28:39;100.75;;;40.10;;
17864;SDS011;9058;52.018;4.202;2023-02-22T01:31:05;107.88;;;40.38;;
17864;SDS011;9058;52.018;4.202;2023-02-22T01:33:31;99.47;;;42.30;;
17864;SDS011;9058;52.018;4.202;2023-02-22T01:35:59;111.88;;;42.40;;
17864;SDS011;9058;52.018;4.202;2023-02-22T01:38:25;115.13;;;45.13;;
17864;SDS011;9058;52.018;4.202;2023-02-22T01:40:52;108.85;;;41.67;;
17864;SDS011;9058;52.018;4.202;2023-02-22T01:43:20;112.72;;;42.95;;
17864;SDS011;9058;52.018;4.202;2023-02-22T01:45:49;105.32;;;41.40;;
17864;SDS011;9058;52.018;4.202;2023-02-22T01:48:19;106.35;;;41.22;;
17864;SDS011;9058;52.018;4.202;2023-02-22T01:50:49;109.38;;;41.05;;
17864;SDS011;9058;52.018;4.202;2023-02-22T01:53:19;101.53;;;39.67;;
17864;SDS011;9058;52.018;4.202;2023-02-22T01:55:47;106.97;;;42.25;;
17864;SDS011;9058;52.018;4.202;2023-02-22T01:58:14;97.72;;;39.63;;
17864;SDS011;9058;52.018;4.202;2023-02-22T02:00:41;100.10;;;40.50;;
17864;SDS011;9058;52.018;4.202;2023-02-22T02:03:11;94.20;;;38.70;;
17864;SDS011;9058;52.018;4.202;2023-02-22T02:05:40;95.97;;;39.50;;
17864;SDS011;9058;52.018;4.202;2023-02-22T02:08:09;101.20;;;41.77;;
17864;SDS011;9058;52.018;4.202;2023-02-22T02:10:38;102.00;;;40.55;;
17864;SDS011;9058;52.018;4.202;2023-02-22T02:13:05;100.43;;;40.73;;
17864;SDS011;9058;52.018;4.202;2023-02-22T02:15:32;91.43;;;38.83;;
17864;SDS011;9058;52.018;4.202;2023-02-22T02:18:00;96.40;;;40.85;;
17864;SDS011;9058;52.018;4.202;2023-02-22T02:20:31;99.50;;;41.50;;
17864;SDS011;9058;52.018;4.202;2023-02-22T02:23:01;104.55;;;39.45;;
17864;SDS011;9058;52.018;4.202;2023-02-22T02:25:43;100.73;;;42.20;;
17864;SDS011;9058;52.018;4.202;2023-02-22T02:28:23;107.95;;;41.58;;
17864;SDS011;9058;52.018;4.202;2023-02-22T02:30:57;115.15;;;44.95;;
17864;SDS011;9058;52.018;4.202;2023-02-22T02:33:33;117.80;;;45.13;;
17864;SDS011;9058;52.018;4.202;2023-02-22T02:36:00;111.55;;;44.15;;
17864;SDS011;9058;52.018;4.202;2023-02-22T02:38:30;112.55;;;43.80;;
17864;SDS011;9058;52.018;4.202;2023-02-22T02:40:59;123.35;;;42.28;;
17864;SDS011;9058;52.018;4.202;2023-02-22T02:43:28;117.40;;;45.20;;
17864;SDS011;9058;52.018;4.202;2023-02-22T02:45:57;119.63;;;45.73;;
17864;SDS011;9058;52.018;4.202;2023-02-22T02:48:27;127.10;;;45.45;;
17864;SDS011;9058;52.018;4.202;2023-02-22T02:50:56;126.68;;;46.38;;
17864;SDS011;9058;52.018;4.202;2023-02-22T02:53:24;129.07;;;46.53;;
17864;SDS011;9058;52.018;4.202;2023-02-22T02:55:54;132.93;;;47.73;;
17864;SDS011;9058;52.018;4.202;2023-02-22T02:58:21;143.50;;;51.83;;
17864;SDS011;9058;52.018;4.202;2023-02-22T03:00:49;127.30;;;45.57;;
17864;SDS011;9058;52.018;4.202;2023-02-22T03:03:22;137.95;;;47.38;;
17864;SDS011;9058;52.018;4.202;2023-02-22T03:05:59;135.70;;;47.92;;
17864;SDS011;9058;52.018;4.202;2023-02-22T03:08:29;143.20;;;48.38;;
17864;SDS011;9058;52.018;4.202;2023-02-22T03:11:01;149.83;;;49.13;;
17864;SDS011;9058;52.018;4.202;2023-02-22T03:13:33;136.53;;;46.10;;
17864;SDS011;9058;52.018;4.202;2023-02-22T03:16:03;137.67;;;43.20;;
17864;SDS011;9058;52.018;4.202;2023-02-22T03:18:36;132.97;;;47.00;;
17864;SDS011;9058;52.018;4.202;2023-02-22T03:21:09;139.30;;;46.17;;
17864;SDS011;9058;52.018;4.202;2023-02-22T03:23:42;155.50;;;45.27;;
17864;SDS011;9058;52.018;4.202;2023-02-22T03:26:12;173.47;;;52.57;;
17864;SDS011;9058;52.018;4.202;2023-02-22T03:28:39;167.23;;;48.17;;
17864;SDS011;9058;52.018;4.202;2023-02-22T03:31:09;182.67;;;52.10;;
17864;SDS011;9058;52.018;4.202;2023-02-22T03:33:39;215.23;;;56.40;;
17864;SDS011;9058;52.018;4.202;2023-02-22T03:36:08;228.70;;;59.78;;
17864;SDS011;9058;52.018;4.202;2023-02-22T03:38:37;245.43;;;62.23;;
17864;SDS011;9058;52.018;4.202;2023-02-22T03:41:05;212.40;;;55.87;;
17864;SDS011;9058;52.018;4.202;2023-02-22T03:43:35;203.63;;;57.63;;
17864;SDS011;9058;52.018;4.202;2023-02-22T03:46:03;217.35;;;56.33;;
17864;SDS011;9058;52.018;4.202;2023-02-22T03:48:31;210.00;;;56.28;;
17864;SDS011;9058;52.018;4.202;2023-02-22T03:51:01;211.00;;;58.78;;
17864;SDS011;9058;52.018;4.202;2023-02-22T03:53:30;228.52;;;62.30;;
17864;SDS011;9058;52.018;4.202;2023-02-22T03:55:58;236.75;;;66.82;;
17864;SDS011;9058;52.018;4.202;2023-02-22T03:58:26;254.50;;;64.15;;
17864;SDS011;9058;52.018;4.202;2023-02-22T04:00:54;233.27;;;59.13;;
17864;SDS011;9058;52.018;4.202;2023-02-22T04:03:21;254.33;;;61.20;;
17864;SDS011;9058;52.018;4.202;2023-02-22T04:05:48;239.60;;;60.27;;
17864;SDS011;9058;52.018;4.202;2023-02-22T04:08:14;203.43;;;52.55;;
17864;SDS011;9058;52.018;4.202;2023-02-22T04:10:42;222.27;;;52.80;;
17864;SDS011;9058;52.018;4.202;2023-02-22T04:13:09;238.87;;;57.23;;
17864;SDS011;9058;52.018;4.202;2023-02-22T04:15:36;264.40;;;56.37;;
17864;SDS011;9058;52.018;4.202;2023-02-22T04:18:02;276.53;;;52.77;;
17864;SDS011;9058;52.018;4.202;2023-02-22T04:20:30;279.47;;;56.40;;
17864;SDS011;9058;52.018;4.202;2023-02-22T04:22:56;337.87;;;56.03;;
17864;SDS011;9058;52.018;4.202;2023-02-22T04:25:24;358.23;;;61.10;;
17864;SDS011;9058;52.018;4.202;2023-02-22T04:27:52;295.70;;;57.63;;
17864;SDS011;9058;52.018;4.202;2023-02-22T04:30:19;306.53;;;58.77;;
17864;SDS011;9058;52.018;4.202;2023-02-22T04:32:45;310.53;;;59.63;;
17864;SDS011;9058;52.018;4.202;2023-02-22T04:35:12;257.60;;;56.50;;
17864;SDS011;9058;52.018;4.202;2023-02-22T04:37:39;261.07;;;59.83;;
17864;SDS011;9058;52.018;4.202;2023-02-22T04:40:06;257.03;;;54.90;;
17864;SDS011;9058;52.018;4.202;2023-02-22T04:42:32;273.50;;;53.17;;
17864;SDS011;9058;52.018;4.202;2023-02-22T04:45:00;278.50;;;54.37;;
17864;SDS011;9058;52.018;4.202;2023-02-22T04:47:27;324.00;;;55.33;;
17864;SDS011;9058;52.018;4.202;2023-02-22T04:49:54;365.00;;;57.80;;
17864;SDS011;9058;52.018;4.202;2023-02-22T04:52:21;291.90;;;52.37;;
17864;SDS011;9058;52.018;4.202;2023-02-22T04:54:48;373.73;;;61.87;;
17864;SDS011;9058;52.018;4.202;2023-02-22T04:57:14;277.02;;;50.03;;
17864;SDS011;9058;52.018;4.202;2023-02-22T04:59:41;287.40;;;51.77;;
17864;SDS011;9058;52.018;4.202;2023-02-22T05:02:10;245.53;;;50.30;;
17864;SDS011;9058;52.018;4.202;2023-02-22T05:04:37;375.93;;;61.23;;
17864;SDS011;9058;52.018;4.202;2023-02-22T05:07:03;396.37;;;58.03;;
17864;SDS011;9058;52.018;4.202;2023-02-22T05:09:29;397.30;;;58.80;;
17864;SDS011;9058;52.018;4.202;2023-02-22T05:11:56;294.13;;;58.70;;
17864;SDS011;9058;52.018;4.202;2023-02-22T05:14:23;342.37;;;56.30;;
17864;SDS011;9058;52.018;4.202;2023-02-22T05:16:50;341.13;;;55.63;;
17864;SDS011;9058;52.018;4.202;2023-02-22T05:19:18;344.60;;;53.50;;
17864;SDS011;9058;52.018;4.202;2023-02-22T05:21:45;375.00;;;62.53;;
17864;SDS011;9058;52.018;4.202;2023-02-22T05:24:11;378.37;;;56.00;;
17864;SDS011;9058;52.018;4.202;2023-02-22T05:26:38;382.87;;;61.57;;
17864;SDS011;9058;52.018;4.202;2023-02-22T05:29:05;368.67;;;58.17;;
17864;SDS011;9058;52.018;4.202;2023-02-22T05:31:32;357.67;;;58.93;;
17864;SDS011;9058;52.018;4.202;2023-02-22T05:33:58;404.35;;;59.65;;
17864;SDS011;9058;52.018;4.202;2023-02-22T05:36:26;361.10;;;60.08;;
17864;SDS011;9058;52.018;4.202;2023-02-22T05:38:53;395.03;;;61.87;;
17864;SDS011;9058;52.018;4.202;2023-02-22T05:41:19;361.52;;;58.13;;
17864;SDS011;9058;52.018;4.202;2023-02-22T05:43:45;345.30;;;59.10;;
17864;SDS011;9058;52.018;4.202;2023-02-22T05:46:12;362.30;;;62.97;;
17864;SDS011;9058;52.018;4.202;2023-02-22T05:48:39;326.45;;;57.10;;
17864;SDS011;9058;52.018;4.202;2023-02-22T05:51:06;225.13;;;49.07;;
17864;SDS011;9058;52.018;4.202;2023-02-22T05:53:35;272.10;;;55.65;;
17864;SDS011;9058;52.018;4.202;2023-02-22T05:56:02;244.83;;;52.83;;
17864;SDS011;9058;52.018;4.202;2023-02-22T05:58:29;276.17;;;57.37;;
17864;SDS011;9058;52.018;4.202;2023-02-22T06:00:55;370.63;;;55.07;;
17864;SDS011;9058;52.018;4.202;2023-02-22T06:03:22;307.43;;;53.60;;
17864;SDS011;9058;52.018;4.202;2023-02-22T06:05:49;313.13;;;51.93;;
17864;SDS011;9058;52.018;4.202;2023-02-22T06:08:15;254.80;;;46.47;;
17864;SDS011;9058;52.018;4.202;2023-02-22T06:10:43;346.33;;;52.40;;
17864;SDS011;9058;52.018;4.202;2023-02-22T06:13:09;209.60;;;39.50;;
17864;SDS011;9058;52.018;4.202;2023-02-22T06:15:36;198.70;;;39.03;;
17864;SDS011;9058;52.018;4.202;2023-02-22T06:18:03;268.43;;;48.70;;
17864;SDS011;9058;52.018;4.202;2023-02-22T06:20:29;215.87;;;46.07;;
17864;SDS011;9058;52.018;4.202;2023-02-22T06:22:57;248.33;;;46.70;;
17864;SDS011;9058;52.018;4.202;2023-02-22T06:25:24;222.40;;;46.13;;
17864;SDS011;9058;52.018;4.202;2023-02-22T06:27:52;215.07;;;45.37;;
17864;SDS011;9058;52.018;4.202;2023-02-22T06:30:20;185.90;;;41.03;;
17864;SDS011;9058;52.018;4.202;2023-02-22T06:32:46;238.17;;;49.20;;
17864;SDS011;9058;52.018;4.202;2023-02-22T06:35:13;188.37;;;43.87;;
17864;SDS011;9058;52.018;4.202;2023-02-22T06:37:40;180.57;;;41.07;;
17864;SDS011;9058;52.018;4.202;2023-02-22T06:40:06;171.33;;;39.13;;
17864;SDS011;9058;52.018;4.202;2023-02-22T06:42:33;176.07;;;38.80;;
17864;SDS011;9058;52.018;4.202;2023-02-22T06:45:01;196.75;;;42.60;;
17864;SDS011;9058;52.018;4.202;2023-02-22T06:47:27;195.80;;;41.97;;
17864;SDS011;9058;52.018;4.202;2023-02-22T06:49:54;168.75;;;41.38;;
17864;SDS011;9058;52.018;4.202;2023-02-22T06:52:20;164.27;;;39.63;;
17864;SDS011;9058;52.018;4.202;2023-02-22T06:54:47;175.03;;;41.90;;
17864;SDS011;9058;52.018;4.202;2023-02-22T06:57:13;190.60;;;44.47;;
17864;SDS011;9058;52.018;4.202;2023-02-22T06:59:40;183.80;;;41.97;;
17864;SDS011;9058;52.018;4.202;2023-02-22T07:02:08;186.07;;;44.43;;
17864;SDS011;9058;52.018;4.202;2023-02-22T07:04:37;170.33;;;39.53;;
17864;SDS011;9058;52.018;4.202;2023-02-22T07:07:03;194.83;;;42.57;;
17864;SDS011;9058;52.018;4.202;2023-02-22T07:09:30;182.47;;;44.57;;
17864;SDS011;9058;52.018;4.202;2023-02-22T07:11:56;194.93;;;44.20;;
17864;SDS011;9058;52.018;4.202;2023-02-22T07:14:22;212.03;;;47.77;;
17864;SDS011;9058;52.018;4.202;2023-02-22T07:16:49;197.77;;;46.83;;
17864;SDS011;9058;52.018;4.202;2023-02-22T07:19:16;202.97;;;48.13;;
17864;SDS011;9058;52.018;4.202;2023-02-22T07:21:43;199.00;;;47.33;;
17864;SDS011;9058;52.018;4.202;2023-02-22T07:24:11;194.60;;;45.80;;
17864;SDS011;9058;52.018;4.202;2023-02-22T07:26:40;191.97;;;48.73;;
17864;SDS011;9058;52.018;4.202;2023-02-22T07:29:07;217.02;;;55.33;;
17864;SDS011;9058;52.018;4.202;2023-02-22T07:31:35;206.50;;;50.50;;
17864;SDS011;9058;52.018;4.202;2023-02-22T07:34:01;222.50;;;54.30;;
17864;SDS011;9058;52.018;4.202;2023-02-22T07:36:30;222.97;;;55.70;;
17864;SDS011;9058;52.018;4.202;2023-02-22T07:38:56;201.73;;;50.13;;
17864;SDS011;9058;52.018;4.202;2023-02-22T07:41:22;207.50;;;52.87;;
17864;SDS011;9058;52.018;4.202;2023-02-22T07:43:50;193.67;;;48.63;;
17864;SDS011;9058;52.018;4.202;2023-02-22T07:46:17;186.70;;;46.40;;
17864;SDS011;9058;52.018;4.202;2023-02-22T07:48:43;181.93;;;48.80;;
17864;SDS011;9058;52.018;4.202;2023-02-22T07:51:13;173.53;;;48.23;;
17864;SDS011;9058;52.018;4.202;2023-02-22T07:53:46;185.25;;;47.92;;
17864;SDS011;9058;52.018;4.202;2023-02-22T07:56:13;172.23;;;46.20;;
17864;SDS011;9058;52.018;4.202;2023-02-22T07:58:39;162.73;;;46.92;;
17864;SDS011;9058;52.018;4.202;2023-02-22T08:01:07;172.20;;;48.15;;
17864;SDS011;9058;52.018;4.202;2023-02-22T08:03:34;161.57;;;44.77;;
17864;SDS011;9058;52.018;4.202;2023-02-22T08:06:03;168.52;;;50.13;;
17864;SDS011;9058;52.018;4.202;2023-02-22T08:08:29;163.20;;;47.92;;
17864;SDS011;9058;52.018;4.202;2023-02-22T08:10:58;153.70;;;45.08;;
17864;SDS011;9058;52.018;4.202;2023-02-22T08:13:24;168.80;;;44.20;;
17864;SDS011;9058;52.018;4.202;2023-02-22T08:15:51;171.07;;;46.03;;
17864;SDS011;9058;52.018;4.202;2023-02-22T08:18:18;161.50;;;46.53;;
17864;SDS011;9058;52.018;4.202;2023-02-22T08:20:46;148.27;;;42.77;;
17864;SDS011;9058;52.018;4.202;2023-02-22T08:23:15;165.37;;;46.60;;
17864;SDS011;9058;52.018;4.202;2023-02-22T08:25:41;144.48;;;41.78;;
17864;SDS011;9058;52.018;4.202;2023-02-22T08:28:10;153.57;;;49.50;;
17864;SDS011;9058;52.018;4.202;2023-02-22T08:30:37;129.98;;;41.17;;
17864;SDS011;9058;52.018;4.202;2023-02-22T08:33:04;102.00;;;35.63;;
17864;SDS011;9058;52.018;4.202;2023-02-22T08:35:30;72.50;;;29.73;;
17864;SDS011;9058;52.018;4.202;2023-02-22T08:37:58;75.63;;;30.13;;
17864;SDS011;9058;52.018;4.202;2023-02-22T08:40:27;80.32;;;31.73;;
17864;SDS011;9058;52.018;4.202;2023-02-22T08:42:55;72.88;;;29.80;;
17864;SDS011;9058;52.018;4.202;2023-02-22T08:45:23;67.75;;;29.38;;
17864;SDS011;9058;52.018;4.202;2023-02-22T08:47:49;69.13;;;29.45;;
17864;SDS011;9058;52.018;4.202;2023-02-22T08:50:16;71.63;;;30.80;;
17864;SDS011;9058;52.018;4.202;2023-02-22T08:52:43;70.90;;;29.52;;
17864;SDS011;9058;52.018;4.202;2023-02-22T08:55:10;64.15;;;27.77;;
17864;SDS011;9058;52.018;4.202;2023-02-22T08:57:36;63.90;;;28.27;;
17864;SDS011;9058;52.018;4.202;2023-02-22T09:00:03;59.03;;;27.08;;
17864;SDS011;9058;52.018;4.202;2023-02-22T09:02:31;55.78;;;27.63;;
17864;SDS011;9058;52.018;4.202;2023-02-22T09:04:57;58.47;;;26.90;;
17864;SDS011;9058;52.018;4.202;2023-02-22T09:07:23;53.72;;;24.65;;
17864;SDS011;9058;52.018;4.202;2023-02-22T09:09:50;53.13;;;26.17;;
17864;SDS011;9058;52.018;4.202;2023-02-22T09:12:16;53.72;;;27.70;;
17864;SDS011;9058;52.018;4.202;2023-02-22T09:14:42;53.10;;;29.33;;
17864;SDS011;9058;52.018;4.202;2023-02-22T09:17:09;55.92;;;31.20;;
17864;SDS011;9058;52.018;4.202;2023-02-22T09:19:36;51.88;;;27.63;;
17864;SDS011;9058;52.018;4.202;2023-02-22T09:22:03;49.78;;;27.83;;
17864;SDS011;9058;52.018;4.202;2023-02-22T09:24:30;50.97;;;27.80;;
17864;SDS011;9058;52.018;4.202;2023-02-22T09:26:57;43.15;;;24.80;;
17864;SDS011;9058;52.018;4.202;2023-02-22T09:29:25;39.15;;;24.35;;
17864;SDS011;9058;52.018;4.202;2023-02-22T09:31:53;44.20;;;23.90;;
17864;SDS011;9058;52.018;4.202;2023-02-22T09:34:20;40.47;;;23.50;;
17864;SDS011;9058;52.018;4.202;2023-02-22T09:36:54;36.45;;;22.60;;
17864;SDS011;9058;52.018;4.202;2023-02-22T09:39:20;37.20;;;22.00;;
17864;SDS011;9058;52.018;4.202;2023-02-22T09:41:49;40.78;;;21.95;;
17864;SDS011;9058;52.018;4.202;2023-02-22T09:44:19;39.13;;;20.77;;
17864;SDS011;9058;52.018;4.202;2023-02-22T09:46:47;38.85;;;22.48;;
17864;SDS011;9058;52.018;4.202;2023-02-22T09:49:17;37.15;;;20.95;;
17864;SDS011;9058;52.018;4.202;2023-02-22T09:51:46;39.50;;;21.95;;
17864;SDS011;9058;52.018;4.202;2023-02-22T09:54:17;32.13;;;20.38;;
17864;SDS011;9058;52.018;4.202;2023-02-22T09:56:45;36.83;;;21.77;;
17864;SDS011;9058;52.018;4.202;2023-02-22T09:59:12;38.28;;;21.95;;
17864;SDS011;9058;52.018;4.202;2023-02-22T10:01:43;32.65;;;20.38;;
17864;SDS011;9058;52.018;4.202;2023-02-22T10:04:12;33.85;;;20.33;;
17864;SDS011;9058;52.018;4.202;2023-02-22T10:06:43;34.78;;;20.35;;
17864;SDS011;9058;52.018;4.202;2023-02-22T10:09:18;32.58;;;20.00;;
17864;SDS011;9058;52.018;4.202;2023-02-22T10:11:48;32.58;;;19.63;;
17864;SDS011;9058;52.018;4.202;2023-02-22T10:14:23;30.63;;;18.80;;
17864;SDS011;9058;52.018;4.202;2023-02-22T10:16:56;30.92;;;19.10;;
17864;SDS011;9058;52.018;4.202;2023-02-22T10:19:26;34.00;;;20.63;;
17864;SDS011;9058;52.018;4.202;2023-02-22T10:21:58;34.10;;;20.77;;
17864;SDS011;9058;52.018;4.202;2023-02-22T10:24:34;28.67;;;19.83;;
17864;SDS011;9058;52.018;4.202;2023-02-22T10:27:03;31.40;;;20.45;;
17864;SDS011;9058;52.018;4.202;2023-02-22T10:29:32;27.70;;;18.77;;
17864;SDS011;9058;52.018;4.202;2023-02-22T10:32:00;29.88;;;18.38;;
17864;SDS011;9058;52.018;4.202;2023-02-22T10:34:30;28.73;;;19.00;;
17864;SDS011;9058;52.018;4.202;2023-02-22T10:36:58;27.75;;;18.40;;
17864;SDS011;9058;52.018;4.202;2023-02-22T10:39:28;30.05;;;17.77;;
17864;SDS011;9058;52.018;4.202;2023-02-22T10:41:57;25.10;;;16.23;;
17864;SDS011;9058;52.018;4.202;2023-02-22T10:44:29;29.75;;;18.92;;
17864;SDS011;9058;52.018;4.202;2023-02-22T10:46:56;29.20;;;18.48;;
17864;SDS011;9058;52.018;4.202;2023-02-22T10:49:23;28.80;;;18.88;;
17864;SDS011;9058;52.018;4.202;2023-02-22T10:51:56;29.05;;;18.67;;
17864;SDS011;9058;52.018;4.202;2023-02-22T10:54:25;30.63;;;18.60;;
17864;SDS011;9058;52.018;4.202;2023-02-22T10:56:54;28.08;;;17.98;;
17864;SDS011;9058;52.018;4.202;2023-02-22T10:59:29;32.95;;;18.67;;
17864;SDS011;9058;52.018;4.202;2023-02-22T11:01:56;29.50;;;18.75;;
17864;SDS011;9058;52.018;4.202;2023-02-22T11:04:23;27.10;;;18.83;;
17864;SDS011;9058;52.018;4.202;2023-02-22T11:07:05;25.45;;;17.40;;
17864;SDS011;9058;52.018;4.202;2023-02-22T11:09:41;29.80;;;19.60;;
17864;SDS011;9058;52.018;4.202;2023-02-22T11:12:14;26.75;;;18.88;;
17864;SDS011;9058;52.018;4.202;2023-02-22T11:14:42;27.10;;;20.02;;
17864;SDS011;9058;52.018;4.202;2023-02-22T11:17:09;26.17;;;18.67;;
17864;SDS011;9058;52.018;4.202;2023-02-22T11:19:38;27.10;;;20.02;;
17864;SDS011;9058;52.018;4.202;2023-02-22T11:22:11;27.83;;;19.40;;
17864;SDS011;9058;52.018;4.202;2023-02-22T11:24:43;25.73;;;18.55;;
17864;SDS011;9058;52.018;4.202;2023-02-22T11:27:10;27.55;;;19.20;;
17864;SDS011;9058;52.018;4.202;2023-02-22T11:29:51;27.50;;;18.25;;
17864;SDS011;9058;52.018;4.202;2023-02-22T11:32:18;27.45;;;18.98;;
17864;SDS011;9058;52.018;4.202;2023-02-22T11:34:47;25.13;;;17.42;;
17864;SDS011;9058;52.018;4.202;2023-02-22T11:37:14;26.05;;;18.70;;
17864;SDS011;9058;52.018;4.202;2023-02-22T11:39:41;28.25;;;19.63;;
17864;SDS011;9058;52.018;4.202;2023-02-22T11:42:20;27.10;;;19.20;;
17864;SDS011;9058;52.018;4.202;2023-02-22T11:44:47;25.65;;;19.45;;
17864;SDS011;9058;52.018;4.202;2023-02-22T11:47:23;29.02;;;19.17;;
17864;SDS011;9058;52.018;4.202;2023-02-22T11:49:49;27.25;;;21.00;;
17864;SDS011;9058;52.018;4.202;2023-02-22T11:52:19;26.75;;;19.55;;
17864;SDS011;9058;52.018;4.202;2023-02-22T11:54:50;25.95;;;19.13;;
17864;SDS011;9058;52.018;4.202;2023-02-22T11:57:24;27.33;;;19.90;;
17864;SDS011;9058;52.018;4.202;2023-02-22T12:02:30;27.10;;;18.25;;
17864;SDS011;9058;52.018;4.202;2023-02-22T12:05:02;25.15;;;19.10;;
17864;SDS011;9058;52.018;4.202;2023-02-22T12:07:37;24.13;;;18.88;;
17864;SDS011;9058;52.018;4.202;2023-02-22T12:10:13;29.40;;;20.85;;
17864;SDS011;9058;52.018;4.202;2023-02-22T12:12:46;27.30;;;19.60;;
17864;SDS011;9058;52.018;4.202;2023-02-22T12:15:21;27.40;;;19.30;;
17864;SDS011;9058;52.018;4.202;2023-02-22T12:17:51;26.40;;;20.05;;
17864;SDS011;9058;52.018;4.202;2023-02-22T12:20:22;30.17;;;20.58;;
17864;SDS011;9058;52.018;4.202;2023-02-22T12:22:54;25.23;;;19.42;;
17864;SDS011;9058;52.018;4.202;2023-02-22T12:25:22;28.60;;;19.95;;
17864;SDS011;9058;52.018;4.202;2023-02-22T12:27:50;31.85;;;21.10;;
17864;SDS011;9058;52.018;4.202;2023-02-22T12:30:19;29.35;;;21.33;;
17864;SDS011;9058;52.018;4.202;2023-02-22T12:32:49;30.98;;;21.55;;
17864;SDS011;9058;52.018;4.202;2023-02-22T12:35:18;29.35;;;21.42;;
17864;SDS011;9058;52.018;4.202;2023-02-22T12:37:48;29.80;;;20.95;;
17864;SDS011;9058;52.018;4.202;2023-02-22T12:40:18;31.15;;;21.25;;
17864;SDS011;9058;52.018;4.202;2023-02-22T12:42:49;29.05;;;20.65;;
17864;SDS011;9058;52.018;4.202;2023-02-22T12:45:24;29.98;;;20.77;;
17864;SDS011;9058;52.018;4.202;2023-02-22T12:47:53;28.73;;;21.17;;
17864;SDS011;9058;52.018;4.202;2023-02-22T12:50:23;27.45;;;20.15;;
17864;SDS011;9058;52.018;4.202;2023-02-22T12:52:54;26.42;;;20.85;;
17864;SDS011;9058;52.018;4.202;2023-02-22T12:55:22;29.23;;;21.60;;
17864;SDS011;9058;52.018;4.202;2023-02-22T12:57:51;27.30;;;21.33;;
17864;SDS011;9058;52.018;4.202;2023-02-22T13:00:21;27.65;;;21.38;;
17864;SDS011;9058;52.018;4.202;2023-02-22T13:02:54;28.52;;;20.73;;
17864;SDS011;9058;52.018;4.202;2023-02-22T13:05:23;27.10;;;20.25;;
17864;SDS011;9058;52.018;4.202;2023-02-22T13:07:53;27.20;;;19.50;;
17864;SDS011;9058;52.018;4.202;2023-02-22T13:10:32;26.90;;;21.15;;
17864;SDS011;9058;52.018;4.202;2023-02-22T13:13:02;31.00;;;21.58;;
17864;SDS011;9058;52.018;4.202;2023-02-22T13:15:33;26.45;;;20.35;;
17864;SDS011;9058;52.018;4.202;2023-02-22T13:18:05;28.00;;;20.63;;
17864;SDS011;9058;52.018;4.202;2023-02-22T13:20:36;28.58;;;21.58;;
17864;SDS011;9058;52.018;4.202;2023-02-22T13:23:06;30.20;;;22.08;;
17864;SDS011;9058;52.018;4.202;2023-02-22T13:25:36;29.80;;;22.08;;
17864;SDS011;9058;52.018;4.202;2023-02-22T13:28:08;28.35;;;20.70;;
17864;SDS011;9058;52.018;4.202;2023-02-22T13:30:40;29.33;;;21.35;;
17864;SDS011;9058;52.018;4.202;2023-02-22T13:33:13;27.83;;;22.15;;
17864;SDS011;9058;52.018;4.202;2023-02-22T13:35:48;29.20;;;22.58;;
17864;SDS011;9058;52.018;4.202;2023-02-22T13:38:24;29.77;;;21.45;;
17864;SDS011;9058;52.018;4.202;2023-02-22T13:40:59;29.85;;;22.30;;
17864;SDS011;9058;52.018;4.202;2023-02-22T13:43:37;30.23;;;22.42;;
17864;SDS011;9058;52.018;4.202;2023-02-22T13:46:21;29.67;;;22.88;;
17864;SDS011;9058;52.018;4.202;2023-02-22T13:49:07;29.33;;;21.48;;
17864;SDS011;9058;52.018;4.202;2023-02-22T13:51:46;29.67;;;22.55;;
17864;SDS011;9058;52.018;4.202;2023-02-22T13:54:15;28.40;;;22.52;;
17864;SDS011;9058;52.018;4.202;2023-02-22T13:56:44;28.98;;;23.48;;
17864;SDS011;9058;52.018;4.202;2023-02-22T13:59:29;31.27;;;23.73;;
17864;SDS011;9058;52.018;4.202;2023-02-22T14:01:55;31.88;;;23.10;;
17864;SDS011;9058;52.018;4.202;2023-02-22T14:09:59;29.73;;;23.27;;
17864;SDS011;9058;52.018;4.202;2023-02-22T14:15:13;31.70;;;24.15;;
17864;SDS011;9058;52.018;4.202;2023-02-22T14:17:39;29.90;;;23.00;;
17864;SDS011;9058;52.018;4.202;2023-02-22T14:20:17;27.63;;;22.52;;
17864;SDS011;9058;52.018;4.202;2023-02-22T14:22:45;28.95;;;22.92;;
17864;SDS011;9058;52.018;4.202;2023-02-22T14:27:54;29.25;;;23.13;;
17864;SDS011;9058;52.018;4.202;2023-02-22T14:30:22;31.00;;;23.35;;
17864;SDS011;9058;52.018;4.202;2023-02-22T14:32:50;30.75;;;23.85;;
17864;SDS011;9058;52.018;4.202;2023-02-22T14:35:17;31.70;;;24.35;;
17864;SDS011;9058;52.018;4.202;2023-02-22T14:37:47;33.00;;;25.25;;
17864;SDS011;9058;52.018;4.202;2023-02-22T14:40:16;33.15;;;26.95;;
17864;SDS011;9058;52.018;4.202;2023-02-22T14:42:44;34.92;;;27.10;;
17864;SDS011;9058;52.018;4.202;2023-02-22T14:45:16;36.25;;;26.98;;
17864;SDS011;9058;52.018;4.202;2023-02-22T14:47:43;39.42;;;29.58;;